Latest Coastal Weather Observations for Tewantin

IDQ60701

Issued at 5:21 am EST Wednesday 25 January 2017 (issued every 10 minutes, with the page automatically refreshed every 10 minutes)

About coastal observations | Map of coastal stations | Coastal observations for QLD | Marine services | Other Formats
Station Details ID: 040908 Name: TEWANTIN RSL PARK Lat: -26.39 Lon: 153.04 Height: 6.4 m
Data from the previous 72 hours. | See also: Recent months at Tewantin
Date/Time
EST
Temp
°C
Wind Pressure Rain since
9am
mm
Weather Cloud Vis
km
Sea
Height
m
Swell
Dir  Spd
kts
Gust
kts
hPa Trend Height
m
Period
s
Dir
25/05:00am 20.1 CALM 0 0 1015.2 - - - - - - - - -
25/04:30am 20.2 CALM 0 0 1014.8 - - - - - - - - -
25/04:00am 20.5 CALM 0 0 1014.7 - - - - - - - - -
25/03:30am 20.7 CALM 0 0 1014.4 - - - - - - - - -
25/03:00am 21.0 WNW 1 4 1014.3 - 0.0 - - - - - - -
25/02:30am 21.3 WNW 1 4 1014.3 - - - - - - - - -
25/02:00am 21.4 CALM 0 0 1014.5 - - - - - - - - -
25/01:30am 21.8 WNW 2 4 1014.4 - - - - - - - - -
25/01:00am 21.8 NW 3 5 1014.6 - - - - - - - - -
25/12:30am 21.7 NW 2 4 1014.9 - - - - - - - - -
25/12:00am 22.2 NW 3 4 1014.9 - - - - - - - - -
 
Date/Time
EST
Temp
°C
Wind Pressure Rain since
9am
mm
Weather Cloud Vis
km
Sea
Height
m
Swell
Dir  Spd
kts
Gust
kts
hPa Trend Height
m
Period
s
Dir
24/11:30pm 22.1 CALM 0 2 1015.3 - - - - - - - - -
24/11:00pm 22.7 NW 3 4 1015.3 - - - - - - - - -
24/10:30pm 22.7 CALM 0 2 1015.3 - - - - - - - - -
24/10:00pm 23.4 NW 3 5 1015.1 - - - - - - - - -
24/09:30pm 23.7 NW 1 4 1015.0 - - - - - - - - -
24/09:00pm 24.7 NNW 3 6 1015.1 - 0.0 - - - - - - -
24/08:30pm 25.2 N 5 7 1014.8 - - - - - - - - -
24/08:00pm 25.2 NNE 5 7 1014.3 - - - - - - - - -
24/07:30pm 25.5 NNE 6 9 1014.3 - - - - - - - - -
24/07:00pm 25.9 NNE 7 10 1014.1 - - - - - - - - -
24/06:30pm 26.2 NNE 7 11 1013.9 - - - - - - - - -
24/06:00pm 26.6 NNE 8 12 1013.6 - - - - - - - - -
24/05:30pm 26.8 NNE 9 13 1013.2 - - - - - - - - -
24/05:00pm 27.2 NE 8 14 1013.1 - - - - - - - - -
24/04:30pm 27.5 NNE 9 15 1013.1 - - - - - - - - -
24/04:00pm 27.6 NE 9 12 1012.9 - - - - - - - - -
24/03:30pm 28.3 NE 9 14 1013.2 - - - - - - - - -
24/03:00pm 28.5 NE 9 15 1013.3 - - - - - - - - -
24/02:30pm 28.3 NE 9 14 1013.4 - - - - - - - - -
24/02:00pm 28.2 NE 10 14 1013.8 - - - - - - - - -
24/01:30pm 28.4 NE 10 15 1013.9 - - - - - - - - -
24/01:00pm 29.1 NE 10 14 1014.4 - - - - - - - - -
24/12:30pm 28.9 NE 8 14 1014.6 - - - - - - - - -
24/12:00pm 28.8 NE 9 13 1015.0 - - - - - - - - -
24/11:30am 28.8 NE 7 11 1015.3 - - - - - - - - -
24/11:00am 28.4 NE 7 11 1015.9 - - - - - - - - -
24/10:30am 28.6 NNE 7 12 1016.3 - - - - - - - - -
24/09:00am 28.3 NE 5 7 1016.9 - 0.0 - - - - - - -
24/08:30am 27.8 NE 7 10 1016.9 - 0.0 - - - - - - -
24/08:00am 27.0 NNE 3 6 1016.9 - 0.0 - - - - - - -
24/07:30am 26.4 ESE 1 4 1017.1 - 0.0 - - - - - - -
24/07:00am 25.2 CALM 0 3 1016.7 - 0.0 - - - - - - -
24/06:30am 23.2 CALM 0 0 1016.5 - 0.0 - - - - - - -
24/06:00am 21.7 CALM 0 0 1016.3 - 0.0 - - - - - - -
24/05:30am 22.0 SW 1 4 1016.0 - 0.0 - - - - - - -
24/05:00am 22.6 WSW 1 3 1015.7 - 0.0 - - - - - - -
24/04:30am 23.1 SW 1 4 1015.5 - 0.0 - - - - - - -
24/04:00am 22.9 SW 2 5 1015.5 - 0.0 - - - - - - -
24/03:30am 23.2 NW 3 4 1015.3 - 0.0 - - - - - - -
24/03:00am 23.6 CALM 0 0 1015.3 - 0.0 - - - - - - -
24/02:30am 24.1 NW 2 4 1015.3 - 0.0 - - - - - - -
24/02:00am 24.9 NE 2 4 1015.4 - 0.0 - - - - - - -
24/01:30am 25.1 E 1 3 1015.4 - 0.0 - - - - - - -
24/01:00am 24.9 E 3 4 1015.4 - 0.0 - - - - - - -
24/12:30am 25.0 ENE 3 5 1015.5 - 0.0 - - - - - - -
24/12:00am 25.4 E 5 8 1015.9 - 0.0 - - - - - - -
 
Date/Time
EST
Temp
°C
Wind Pressure Rain since
9am
mm
Weather Cloud Vis
km
Sea
Height
m
Swell
Dir  Spd
kts
Gust
kts
hPa Trend Height
m
Period
s
Dir
23/11:30pm 25.0 E 5 7 1016.0 - 0.0 - - - - - - -
23/11:00pm 24.9 NE 3 4 1016.4 - 0.0 - - - - - - -
23/10:30pm 25.0 NE 3 5 1016.7 - 0.0 - - - - - - -
23/10:00pm 25.2 ENE 3 5 1016.9 - 0.0 - - - - - - -
23/09:30pm 25.5 ENE 4 5 1017.0 - 0.0 - - - - - - -
23/09:00pm 25.4 E 3 4 1016.9 - 0.0 - - - - - - -
23/08:30pm 25.5 SE 3 5 1016.5 - 0.0 - - - - - - -
23/08:00pm 25.5 ESE 5 7 1016.2 - 0.0 - - - - - - -
23/07:30pm 25.2 E 5 6 1016.0 - 0.0 - - - - - - -
23/07:00pm 25.4 ENE 6 8 1015.8 - 0.0 - - - - - - -
23/06:30pm 25.9 E 5 8 1015.5 - 0.0 - - - - - - -
23/06:00pm 26.0 E 7 9 1015.2 - 0.0 - - - - - - -
23/05:30pm 26.0 ESE 5 8 1014.9 - 0.0 - - - - - - -
23/05:00pm 26.3 ESE 7 11 1014.5 - 0.0 - - - - - - -
23/04:30pm 26.6 ESE 7 12 1014.3 - 0.0 - - - - - - -
23/04:00pm 26.7 ESE 7 11 1014.2 - 0.0 - - - - - - -
23/03:30pm 26.9 ESE 7 12 1014.3 - 0.0 - - - - - - -
23/03:00pm 26.9 ESE 7 11 1014.3 - 0.0 - - - - - - -
23/02:30pm 26.9 E 7 12 1014.5 - 0.0 - - - - - - -
23/02:00pm 27.2 ENE 7 13 1014.8 - 0.0 - - - - - - -
23/01:30pm 27.2 E 7 12 1015.0 - 0.0 - - - - - - -
23/01:00pm 27.5 E 8 13 1015.3 - 0.0 - - - - - - -
23/12:30pm 27.2 SE 6 9 1015.7 - 0.0 - - - - - - -
23/12:00pm 27.2 SE 7 11 1016.0 - 0.0 - - - - - - -
23/11:30am 27.3 E 8 11 1016.2 - 0.0 - - - - - - -
23/11:00am 27.0 SE 7 11 1016.5 - 0.0 - - - - - - -
23/10:30am 27.5 ESE 7 12 1016.6 - 0.0 - - - - - - -
23/10:00am 27.1 ESE 5 8 1016.7 - 0.0 - - - - - - -
23/09:30am 26.6 ESE 7 11 1016.9 - 0.0 - - - - - - -
23/09:00am 26.1 ESE 8 14 1016.7 - 0.0 - - - - - - -
23/08:30am 25.8 SSE 5 9 1016.5 - 0.0 - - - - - - -
23/08:00am 25.9 SSE 6 10 1016.4 - 0.0 - - - - - - -
23/07:30am 26.3 SE 9 13 1016.2 - 0.0 - - - - - - -
23/07:00am 25.6 SSE 6 11 1016.0 - 0.0 - - - - - - -
23/06:30am 23.3 SSW 5 6 1015.8 - 0.0 - - - - - - -
23/06:00am 22.8 SSW 5 7 1015.4 - 0.0 - - - - - - -
23/05:30am 22.3 S 5 7 1015.1 - 0.0 - - - - - - -
23/05:00am 21.8 SSW 4 6 1014.9 - 0.0 - - - - - - -
23/04:30am 21.6 SW 3 5 1014.6 - 0.0 - - - - - - -
23/04:00am 22.9 S 4 5 1014.4 - 0.0 - - - - - - -
23/03:30am 23.6 SE 5 9 1014.4 - 0.0 - - - - - - -
23/03:00am 23.9 SE 6 9 1014.3 - 0.0 - - - - - - -
23/02:30am 24.0 SE 6 9 1014.4 - 0.0 - - - - - - -
23/02:00am 24.0 ESE 6 9 1014.6 - 0.0 - - - - - - -
23/01:30am 24.3 ESE 6 10 1014.9 - 0.0 - - - - - - -
23/01:00am 24.3 ESE 7 11 1015.0 - 0.0 - - - - - - -
23/12:30am 24.4 ESE 7 10 1015.2 - 0.0 - - - - - - -
23/12:00am 24.3 ESE 7 12 1015.3 - 0.0 - - - - - - -
 
Date/Time
EST
Temp
°C
Wind Pressure Rain since
9am
mm
Weather Cloud Vis
km
Sea
Height
m
Swell
Dir  Spd
kts
Gust
kts
hPa Trend Height
m
Period
s
Dir
22/11:30pm 24.5 ESE 7 11 1015.6 - 0.0 - - - - - - -
22/11:00pm 24.3 ESE 6 9 1015.9 - 0.0 - - - - - - -
22/10:30pm 24.5 ESE 7 12 1016.0 - 0.0 - - - - - - -
22/10:00pm 24.4 ESE 7 11 1016.2 - 0.0 - - - - - - -
22/09:30pm 23.9 SSE 5 8 1016.3 - 0.0 - - - - - - -
22/09:00pm 24.0 SE 5 9 1016.0 - 0.0 - - - - - - -
22/08:30pm 24.1 SSE 5 8 1016.0 - 0.0 - - - - - - -
22/08:00pm 24.6 SE 7 10 1015.8 - 0.0 - - - - - - -
22/07:30pm 24.7 SE 7 10 1015.6 - 0.0 - - - - - - -
22/07:00pm 25.0 SE 7 12 1015.5 - 0.0 - - - - - - -
22/06:30pm 25.1 ESE 8 13 1015.3 - 0.0 - - - - - - -
22/06:00pm 25.3 SE 7 11 1014.9 - 0.0 - - - - - - -
22/05:30pm 25.4 SE 8 15 1014.6 - 0.0 - - - - - - -
22/05:00pm 25.6 SE 8 13 1014.3 - 0.0 - - - - - - -
22/04:30pm 25.6 ESE 10 17 1014.2 - 0.0 - - - - - - -
22/04:00pm 25.8 SE 8 13 1014.2 - 0.0 - - - - - - -
22/03:30pm 25.8 SE 9 14 1014.4 - 0.0 - - - - - - -
22/03:00pm 26.2 ESE 10 16 1014.5 - 0.0 - - - - - - -
22/02:30pm 26.1 SE 10 17 1014.8 - 0.0 - - - - - - -
22/02:00pm 26.4 SE 8 13 1014.8 - 0.0 - - - - - - -
22/01:30pm 26.3 SE 9 15 1014.9 - 0.0 - - - - - - -
22/01:00pm 26.0 ESE 10 16 1015.2 - 0.0 - - - - - - -
22/12:30pm 26.3 SE 10 15 1015.4 - 0.0 - - - - - - -
22/12:00pm 26.4 SE 10 16 1015.7 - 0.0 - - - - - - -
22/11:30am 26.4 SE 9 17 1015.8 - 0.0 - - - - - - -
22/11:00am 26.4 SE 11 17 1015.9 - 0.0 - - - - - - -
22/10:30am 26.5 SE 9 15 1015.9 - 0.0 - - - - - - -
22/10:00am 27.3 SE 11 16 1015.9 - 0.0 - - - - - - -
22/09:30am 26.0 SE 10 18 1015.8 - 0.0 - - - - - - -
22/09:00am 26.3 SE 8 13 1015.5 - 30.4 - - - - - - -
22/08:30am 25.8 SE 7 15 1015.3 - 30.4 - - - - - - -
22/08:00am 25.0 SE 10 18 1015.2 - 30.4 - - - - - - -
22/07:30am 25.3 SE 5 11 1015.1 - 30.4 - - - - - - -
22/07:00am 25.2 SE 6 9 1015.1 - 30.4 - - - - - - -
22/06:30am 25.2 SE 7 12 1014.8 - 30.4 - - - - - - -
22/06:00am 25.1 SE 8 13 1014.4 - 30.4 - - - - - - -
22/05:30am 24.7 SSE 7 12 1013.9 - 30.4 - - - - - - -

Other Formats:

Comma delimited format used in spreadsheet applications
http://www.bom.gov.au/fwo/IDQ60701/IDQ60701.94570.axf

JavaScript Object Notation format (JSON) in row-major order
http://www.bom.gov.au/fwo/IDQ60701/IDQ60701.94570.json